AirNav   ProFlight Series 2 Aviation Headset
 
 504 users online  

4IL0 Litchfield Fire Dept West Side Emergency Services Heliport
Litchfield, Illinois, USA

GOING TO LITCHFIELD?


FAA INFORMATION EFFECTIVE 18 JUNE 2020

Location

FAA Identifier: 4IL0
Lat/Long: 39-09-38.0000N 089-39-57.0000W
39-09.633333N 089-39.950000W
39.1605556,-89.6658333
(estimated)
Elevation: 677 ft. / 206 m
Variation: 00W (2000)
Time zone: UTC -5 (UTC -6 during Standard Time)
Zip code: 62056

Heliport Operations

Heliport use: Private use. Permission required prior to landing
Activation date: 04/2001
Control tower: no
ARTCC: KANSAS CITY CENTER
FSS: SAINT LOUIS FLIGHT SERVICE STATION
Attendance: CONTINUOUS
Wind indicator: lighted
Segmented circle: no

Heliport Communications

WX AWOS-3 at 3LF (0.4 nm W): 118.175 (217-324-4735)

Nearby radio navigation aids

VOR radial/distance  VOR name  Freq  Var
VLAr276/23.8VANDALIA VOR/DME114.3004E
TOYr021/27.9TROY VORTAC116.0004E

 
NDB name  Hdg/Dist  Freq  Var  ID
CIVIC MEMORIAL050/24.326301WCVM -.-. ...- --

Heliport Services

Runway Information

Helipad H1

Dimensions: 30 x 30 ft. / 9 x 9 m
Surface: concrete
Runway edge lights: FLD
Latitude: 39-09.633333N
Longitude: 089-39.950000W
Elevation: 677.0 ft.
Traffic pattern: leftleft

Heliport Ownership and Management from official FAA records

Ownership: Privately-owned
Owner: CITY OF LITCHFIELD
120 E RYDER ST
LITCHFIELD, IL 62056
Phone (217) 324-8152
TONYA FLANNERY
Manager: JOE HOLOMY
LITCHFIELD FIREHOUSE, 201 EDWARDS
LITCHFIELD, IL 62056
Phone 217-324-8171

Additional Remarks

FOR CD CTC KANSAS CITY ARTCC AT 913-254-8508.

Instrument Procedures

There are no published instrument procedures at 4IL0.

Some nearby airports with instrument procedures:

3LF - Litchfield Municipal Airport (0 nm W)
KGRE - Greenville Airport (24 nm SE)
KALN - St Louis Regional Airport (24 nm SW)
KVLA - Vandalia Municipal Airport (25 nm SE)
KTAZ - Taylorville Municipal Airport (27 nm NE)
 
Loc | Ops | Rwys | IFR | FBO | Links
Com | Nav | Svcs | Stats | Notes
Area around 4IL0 (Litchfield Fire Dept West Side Emergency Services Heliport)
 
Road maps at: MapQuest Bing Google
 
Aerial photo
WARNING: Photo may not be current or correct
Aerial photo of 4IL0 (Litchfield Fire Dept West Side Emergency Services Heliport)
Do you have a better or more recent aerial photo of Litchfield Fire Dept West Side Emergency Services Heliport that you would like to share? If so, please send us your photo.

 
Sectional chart

 
Airport distance calculator
Flying to Litchfield Fire Dept West Side Emergency Services Heliport? Find the distance to fly.

From to 4IL0

Sunrise and sunset
Times for 11-Jul-2020
 Local
(UTC-5)
 Zulu
(UTC)
Morning civil twilight05:1210:12
Sunrise05:4410:44
Sunset20:2501:25
Evening civil twilight20:5601:56

Current date and time
Zulu (UTC)  11-Jul-2020 11:31:35
Local (UTC-5)  11-Jul-2020 06:31:35
 
METAR
K3LF 111115Z AUTO 00000KT 10SM SCT060 21/20 A3001 RMK AO2 T02060195
TAF
KBLV 
38nm S 
110800Z 1108/1214 26006KT 9999 FEW050 QNH2995INS BECMG 1113/1114 27010G15KT 9999 SCT050 QNH2988INS BECMG 1119/1120 25006KT 9999 SCT050 QNH2980INS BECMG 1202/1203 VRB06KT 9999 BKN035 QNH2974INS TX34/1121Z TN22/1109Z
KSTL 
41nm SW 
110911Z 1109/1212 24005KT P6SM FEW250 FM111600 24008KT P6SM BKN045 FM112100 27008KT P6SM SCT045
KSPI 
41nm N 
110520Z 1106/1206 30006KT P6SM SKC FM111600 24007KT P6SM SCT050
KCPS 
42nm SW 
110520Z 1106/1206 00000KT P6SM FEW250 FM111600 22006KT P6SM SCT045 FM120000 27007KT P6SM SCT045
NOTAMs
Click for the latest NOTAMs
NOTAMs are issued by the DoD/FAA and will open in a separate window not controlled by AirNav.

 

 
 

Would you like to see your business listed on this page?

 If your business provides an interesting product or service to pilots, flight crews, aircraft, or users of the Litchfield Fire Dept West Side Emergency Services Heliport, you should consider listing it here.  To start the listing process, click on the button below
 
Add a business
 

Other Pages about Litchfield Fire Dept West Side Emergency Services Heliport

Update a link
 
Copyright © AirNav, LLC. All rights reserved. Privacy Policy  Contact